createdAt,value
2022-10-28T00:00:50.754Z,4.46
2022-10-28T00:03:18.772Z,4.52
2022-10-28T00:05:46.183Z,4.40
2022-10-28T00:08:13.130Z,4.56
2022-10-28T00:10:40.200Z,4.50
2022-10-28T00:13:07.178Z,4.58
2022-10-28T00:15:35.806Z,4.69
2022-10-28T00:18:02.806Z,4.74
2022-10-28T00:20:32.004Z,4.82
2022-10-28T00:22:58.917Z,4.89
2022-10-28T00:25:25.996Z,4.71
2022-10-28T00:27:53.320Z,4.76
2022-10-28T00:30:20.643Z,4.77
2022-10-28T00:32:47.638Z,4.89
2022-10-28T00:35:14.559Z,4.94
2022-10-28T00:37:41.590Z,4.85
2022-10-28T00:40:09.186Z,4.77
2022-10-28T00:42:36.290Z,4.88
2022-10-28T00:45:04.275Z,4.81
2022-10-28T00:48:02.649Z,4.88
2022-10-28T00:50:44.917Z,4.82
2022-10-28T00:53:15.764Z,4.85
2022-10-28T00:55:43.977Z,4.93
2022-10-28T00:58:11.448Z,4.86
2022-10-28T01:00:38.494Z,4.87
2022-10-28T01:03:05.568Z,5.11
2022-10-28T01:05:36.217Z,4.88
2022-10-28T01:08:05.326Z,5.04
2022-10-28T01:10:47.888Z,5.06
2022-10-28T01:13:39.257Z,5.18
2022-10-28T01:16:06.306Z,5.15
2022-10-28T01:18:57.976Z,5.21
2022-10-28T01:21:43.676Z,5.30
2022-10-28T01:24:25.897Z,5.36
2022-10-28T01:27:26.481Z,5.39
2022-10-28T01:30:34.294Z,5.36
2022-10-28T01:33:34.685Z,5.24
2022-10-28T01:36:09.818Z,5.19
2022-10-28T01:38:50.089Z,5.00
2022-10-28T01:41:43.385Z,4.96
2022-10-28T01:44:39.598Z,4.93
2022-10-28T01:47:35.777Z,4.86
2022-10-28T01:50:08.733Z,4.86
2022-10-28T01:52:39.192Z,4.75
2022-10-28T01:55:15.217Z,4.84
2022-10-28T01:57:43.608Z,5.00
2022-10-28T02:00:11.328Z,4.95
2022-10-28T02:02:43.408Z,4.95
2022-10-28T02:05:38.868Z,4.89
2022-10-28T02:08:38.145Z,4.96
2022-10-28T02:11:21.074Z,4.89
2022-10-28T02:14:06.024Z,4.98
2022-10-28T02:16:41.847Z,5.00
2022-10-28T02:19:15.199Z,4.94
2022-10-28T02:22:16.177Z,5.11
2022-10-28T02:25:04.821Z,5.23
2022-10-28T02:27:34.724Z,5.15
2022-10-28T02:30:15.450Z,5.12
2022-10-28T02:32:47.531Z,5.19
2022-10-28T02:35:22.862Z,5.22
2022-10-28T02:37:52.682Z,5.30
2022-10-28T02:40:24.613Z,5.28
2022-10-28T02:42:57.287Z,5.38
2022-10-28T02:45:43.414Z,5.42
2022-10-28T02:48:19.562Z,5.33
2022-10-28T02:50:52.958Z,5.25
2022-10-28T02:56:01.249Z,5.61
2022-10-28T02:58:28.347Z,5.68
2022-10-28T03:00:55.472Z,5.48
2022-10-28T03:03:22.447Z,5.33
2022-10-28T03:05:49.277Z,5.37
2022-10-28T03:08:16.183Z,5.48
2022-10-28T03:10:43.027Z,5.62
2022-10-28T03:13:09.924Z,5.75
2022-10-28T03:15:36.859Z,5.80
2022-10-28T03:18:03.880Z,5.78
2022-10-28T03:20:30.841Z,5.82
2022-10-28T03:22:57.721Z,5.87
2022-10-28T03:25:25.077Z,5.90
2022-10-28T03:27:52.015Z,5.63
2022-10-28T03:30:19.157Z,5.47
2022-10-28T03:32:46.106Z,5.46
2022-10-28T03:35:13.046Z,5.41
2022-10-28T03:37:43.981Z,5.36
2022-10-28T03:40:11.941Z,5.39
2022-10-28T03:42:42.307Z,5.48
2022-10-28T03:45:10.021Z,5.37
2022-10-28T03:47:37.436Z,5.21
2022-10-28T03:50:04.906Z,5.22
2022-10-28T03:52:31.895Z,5.20
2022-10-28T03:54:58.789Z,5.17
2022-10-28T03:57:25.621Z,5.16
2022-10-28T03:59:52.481Z,5.15
2022-10-28T04:02:19.606Z,5.10
2022-10-28T04:04:46.656Z,5.01
2022-10-28T04:07:13.560Z,4.99
2022-10-28T04:09:42.639Z,4.98
2022-10-28T04:12:11.391Z,5.13
2022-10-28T04:14:38.249Z,5.31
2022-10-28T04:17:05.206Z,5.39
2022-10-28T04:19:32.052Z,5.52
2022-10-28T04:21:59.003Z,5.60
2022-10-28T04:24:25.870Z,5.59
2022-10-28T04:26:52.774Z,5.45
2022-10-28T04:29:19.849Z,5.49
2022-10-28T04:31:48.731Z,5.20
2022-10-28T04:34:18.313Z,5.18
2022-10-28T04:36:45.266Z,5.33
2022-10-28T04:39:12.136Z,5.23
2022-10-28T04:41:39.133Z,5.16
2022-10-28T04:44:06.061Z,5.43
2022-10-28T04:46:32.991Z,5.47
2022-10-28T04:48:59.915Z,5.44
2022-10-28T04:51:26.828Z,5.39
2022-10-28T04:53:53.856Z,5.48
2022-10-28T04:56:20.938Z,5.52
2022-10-28T04:58:48.389Z,5.39
2022-10-28T05:01:15.477Z,5.33
2022-10-28T05:03:42.405Z,5.32
2022-10-28T05:06:09.346Z,5.35
2022-10-28T05:08:36.362Z,5.30
2022-10-28T05:11:03.321Z,5.30
2022-10-28T05:13:30.248Z,5.43
2022-10-28T05:15:57.271Z,5.36
2022-10-28T05:18:24.197Z,5.50
2022-10-28T05:20:54.888Z,5.44
2022-10-28T05:23:28.560Z,5.59
2022-10-28T05:25:57.717Z,5.56
2022-10-28T05:28:24.664Z,5.64
2022-10-28T05:30:51.573Z,5.85
2022-10-28T05:33:18.555Z,5.95
2022-10-28T05:35:45.500Z,5.95
2022-10-28T05:38:12.515Z,6.03
2022-10-28T05:40:39.879Z,6.09
2022-10-28T05:43:06.888Z,6.00
2022-10-28T05:45:33.997Z,6.03
2022-10-28T05:48:00.938Z,6.11
2022-10-28T05:50:28.706Z,6.11
2022-10-28T05:52:57.271Z,6.16
2022-10-28T05:55:28.510Z,6.21
2022-10-28T05:57:56.258Z,6.13
2022-10-28T06:00:25.566Z,6.30
2022-10-28T06:02:52.750Z,6.33
2022-10-28T06:05:20.526Z,6.32
2022-10-28T06:07:47.490Z,6.20
2022-10-28T06:10:14.521Z,6.42
2022-10-28T06:12:39.950Z,6.52
2022-10-28T06:15:07.362Z,6.60
2022-10-28T06:17:34.372Z,6.57
2022-10-28T06:20:01.926Z,6.50
2022-10-28T06:22:28.975Z,6.61
2022-10-28T06:24:55.853Z,6.44
2022-10-28T06:27:22.874Z,6.50
2022-10-28T06:29:49.860Z,6.59
2022-10-28T06:32:16.708Z,6.74
2022-10-28T06:34:43.570Z,6.83
2022-10-28T06:37:10.531Z,6.85
2022-10-28T06:39:38.513Z,6.79
2022-10-28T06:42:05.499Z,6.76
2022-10-28T06:44:32.510Z,6.79
2022-10-28T06:47:00.987Z,6.96
2022-10-28T06:49:28.956Z,7.07
2022-10-28T06:51:55.929Z,6.81
2022-10-28T06:54:22.806Z,6.69
2022-10-28T06:56:49.847Z,6.54
2022-10-28T06:59:16.777Z,6.60
2022-10-28T07:01:43.684Z,6.79
2022-10-28T07:04:13.647Z,7.05
2022-10-28T07:06:41.146Z,7.00
2022-10-28T07:09:08.316Z,7.20
2022-10-28T07:11:35.246Z,7.20
2022-10-28T07:14:02.202Z,7.43
2022-10-28T07:16:29.126Z,7.54
2022-10-28T07:18:56.050Z,7.48
2022-10-28T07:21:28.540Z,7.60
2022-10-28T07:23:58.704Z,7.54
2022-10-28T07:26:26.289Z,7.67
2022-10-28T07:28:54.430Z,7.75
2022-10-28T07:31:21.608Z,7.68
2022-10-28T07:33:54.980Z,7.77
2022-10-28T07:36:22.159Z,7.87
2022-10-28T07:38:52.970Z,7.90
2022-10-28T07:41:21.799Z,8.10
2022-10-28T07:43:48.812Z,8.23
2022-10-28T07:46:16.964Z,8.23
2022-10-28T07:48:43.952Z,8.12
2022-10-28T07:51:13.449Z,8.15
2022-10-28T07:53:41.279Z,8.04
2022-10-28T07:56:13.264Z,8.36
2022-10-28T07:58:42.104Z,8.34
2022-10-28T08:01:10.751Z,8.19
2022-10-28T08:03:39.373Z,8.45
2022-10-28T08:06:10.907Z,8.51
2022-10-28T08:08:38.341Z,8.44
2022-10-28T08:11:15.844Z,8.58
2022-10-28T08:13:43.023Z,8.86
2022-10-28T08:16:10.018Z,8.80
2022-10-28T08:18:38.775Z,8.90
2022-10-28T08:21:08.083Z,8.99
2022-10-28T08:23:35.653Z,9.02
2022-10-28T08:26:03.217Z,9.05
2022-10-28T08:28:30.296Z,9.14
2022-10-28T08:31:09.435Z,9.15
2022-10-28T08:33:38.316Z,9.01
2022-10-28T08:36:06.759Z,8.92
2022-10-28T08:38:34.102Z,8.88
2022-10-28T08:41:05.731Z,8.97
2022-10-28T08:43:59.263Z,9.28
2022-10-28T08:46:47.075Z,9.44
2022-10-28T08:49:18.210Z,9.55
2022-10-28T08:52:25.638Z,9.33
2022-10-28T08:55:16.593Z,9.29
2022-10-28T08:57:49.302Z,9.38
2022-10-28T09:00:25.622Z,9.48
2022-10-28T09:02:57.050Z,9.67
2022-10-28T09:05:26.601Z,9.80
2022-10-28T09:07:54.877Z,9.68
2022-10-28T09:10:41.081Z,9.54
2022-10-28T09:13:44.663Z,9.69
2022-10-28T09:16:18.849Z,9.78
2022-10-28T09:18:52.278Z,9.94
2022-10-28T09:21:48.002Z,10.36
2022-10-28T09:24:21.070Z,10.45
2022-10-28T09:26:52.646Z,10.45
2022-10-28T09:29:53.388Z,10.68
2022-10-28T09:32:34.616Z,10.63
2022-10-28T09:35:11.579Z,10.65
2022-10-28T09:37:44.562Z,10.70
2022-10-28T09:40:20.741Z,11.16
2022-10-28T09:42:56.993Z,11.05
2022-10-28T09:45:28.200Z,11.02
2022-10-28T09:48:25.655Z,10.66
2022-10-28T09:50:55.041Z,10.77
2022-10-28T09:53:35.932Z,10.59
2022-10-28T09:56:04.773Z,10.73
2022-10-28T09:58:33.880Z,10.63
2022-10-28T10:01:01.842Z,10.49
2022-10-28T10:03:28.902Z,10.67
2022-10-28T10:05:58.658Z,10.49
2022-10-28T10:08:25.706Z,10.45
2022-10-28T10:11:22.870Z,10.71
2022-10-28T10:13:51.875Z,10.88
2022-10-28T10:16:26.702Z,10.69
2022-10-28T10:18:56.215Z,10.83
2022-10-28T10:21:54.337Z,10.79
2022-10-28T10:24:35.386Z,10.92
2022-10-28T10:27:13.694Z,10.98
2022-10-28T10:29:49.622Z,10.72
2022-10-28T10:32:25.033Z,10.75
2022-10-28T10:35:02.988Z,10.73
2022-10-28T10:37:35.393Z,10.68
2022-10-28T10:40:05.248Z,10.61
2022-10-28T10:42:32.290Z,10.26
2022-10-28T10:45:02.559Z,10.62
2022-10-28T10:47:31.095Z,10.73
2022-10-28T10:50:20.812Z,10.68
2022-10-28T10:52:50.627Z,10.79
2022-10-28T10:55:49.433Z,10.82
2022-10-28T10:58:21.008Z,10.77
2022-10-28T11:00:50.969Z,10.55
2022-10-28T11:03:40.279Z,10.82
2022-10-28T11:06:23.147Z,10.75
2022-10-28T11:08:57.347Z,10.75
2022-10-28T11:11:34.595Z,10.85
2022-10-28T11:14:10.618Z,10.81
2022-10-28T11:16:58.045Z,10.94
2022-10-28T11:19:29.501Z,10.94
2022-10-28T11:22:24.574Z,10.96
2022-10-28T11:25:30.056Z,10.86
2022-10-28T11:28:15.314Z,10.58
2022-10-28T11:33:52.710Z,10.83
2022-10-28T11:36:45.942Z,10.97
2022-10-28T11:39:33.737Z,10.98
2022-10-28T11:42:34.464Z,11.02
2022-10-28T11:45:04.181Z,11.00
2022-10-28T11:47:46.818Z,11.04
2022-10-28T11:50:23.954Z,10.86
2022-10-28T11:53:15.584Z,10.97
2022-10-28T11:56:00.890Z,11.00
2022-10-28T11:58:41.104Z,10.93
2022-10-28T12:01:31.270Z,10.91
2022-10-28T12:04:17.697Z,10.84
2022-10-28T12:07:23.084Z,10.91
2022-10-28T12:10:08.007Z,11.01
2022-10-28T12:12:43.893Z,10.83
2022-10-28T12:15:22.553Z,10.96
2022-10-28T12:18:05.946Z,10.92
2022-10-28T12:20:42.424Z,10.86
2022-10-28T12:23:14.043Z,10.63
2022-10-28T12:25:44.994Z,10.83
2022-10-28T12:28:21.615Z,10.65
2022-10-28T12:30:50.267Z,10.66
2022-10-28T12:33:19.675Z,10.67
2022-10-28T12:35:54.011Z,10.80
2022-10-28T12:38:30.170Z,10.77
2022-10-28T12:41:12.403Z,10.72
2022-10-28T12:43:47.565Z,10.57
2022-10-28T12:46:39.237Z,10.63
2022-10-28T12:49:16.675Z,10.55
2022-10-28T12:51:44.215Z,10.48
2022-10-28T12:54:37.374Z,10.43
2022-10-28T12:57:13.766Z,10.40
2022-10-28T13:00:16.100Z,10.48
2022-10-28T13:02:58.470Z,10.47
2022-10-28T13:05:31.542Z,10.40
2022-10-28T13:08:16.494Z,10.44
2022-10-28T13:10:47.350Z,10.60
2022-10-28T13:13:29.219Z,10.63
2022-10-28T13:16:20.648Z,10.56
2022-10-28T13:19:16.881Z,10.38
2022-10-28T13:22:16.284Z,10.36
2022-10-28T13:25:09.950Z,10.35
2022-10-28T13:30:17.214Z,10.38
2022-10-28T13:32:44.577Z,10.33
2022-10-28T13:35:26.725Z,10.42
2022-10-28T13:37:56.453Z,10.38
2022-10-28T13:40:43.433Z,10.30
2022-10-28T13:43:40.848Z,10.26
2022-10-28T13:46:07.832Z,10.31
2022-10-28T13:48:43.519Z,10.25
2022-10-28T13:51:10.484Z,10.27
2022-10-28T13:53:42.712Z,10.21
2022-10-28T13:56:18.597Z,10.25
2022-10-28T13:58:58.295Z,10.13
2022-10-28T14:02:07.539Z,10.16
2022-10-28T14:04:42.468Z,10.18
2022-10-28T14:07:12.803Z,10.16
2022-10-28T14:09:41.512Z,10.17
2022-10-28T14:12:17.703Z,10.16
2022-10-28T14:15:13.852Z,10.19
2022-10-28T14:17:45.164Z,10.16
2022-10-28T14:20:23.830Z,10.08
2022-10-28T14:22:53.052Z,10.08
2022-10-28T14:25:41.923Z,10.02
2022-10-28T14:28:27.403Z,10.03
2022-10-28T14:31:10.439Z,10.01
2022-10-28T14:33:43.717Z,9.92
2022-10-28T14:36:19.609Z,9.95
2022-10-28T14:39:04.660Z,9.94
2022-10-28T14:41:37.603Z,9.70
2022-10-28T14:44:07.590Z,9.78
2022-10-28T14:46:43.724Z,9.55
2022-10-28T14:49:30.905Z,9.61
2022-10-28T14:52:07.511Z,9.67
2022-10-28T14:54:47.520Z,9.64
2022-10-28T14:57:16.639Z,9.59
2022-10-28T14:59:45.374Z,9.65
2022-10-28T15:02:20.373Z,9.49
2022-10-28T15:04:57.748Z,9.50
2022-10-28T15:07:25.073Z,9.48
2022-10-28T15:09:53.849Z,9.56
2022-10-28T15:12:23.422Z,9.47
2022-10-28T15:14:56.588Z,9.53
2022-10-28T15:17:31.579Z,9.51
2022-10-28T15:20:00.365Z,9.54
2022-10-28T15:22:33.353Z,9.52
2022-10-28T15:25:02.938Z,9.35
2022-10-28T15:27:33.827Z,9.32
2022-10-28T15:30:01.296Z,9.30
2022-10-28T15:32:31.028Z,9.23
2022-10-28T15:34:58.209Z,9.29
2022-10-28T15:37:30.953Z,9.29
2022-10-28T15:40:18.556Z,9.28
2022-10-28T15:42:53.792Z,9.21
2022-10-28T15:45:25.572Z,9.18
2022-10-28T15:47:53.521Z,9.24
2022-10-28T15:50:27.315Z,9.24
2022-10-28T15:53:32.352Z,9.19
2022-10-28T15:56:14.694Z,9.25
2022-10-28T15:58:43.901Z,9.26
2022-10-28T16:01:35.837Z,9.28
2022-10-28T16:04:02.809Z,9.30
2022-10-28T16:06:36.171Z,9.32
2022-10-28T16:09:05.458Z,9.43
2022-10-28T16:11:36.545Z,9.46
2022-10-28T16:14:19.402Z,9.50
2022-10-28T16:16:46.445Z,9.49
2022-10-28T16:19:28.122Z,9.48
2022-10-28T16:21:55.647Z,9.52
2022-10-28T16:24:22.883Z,9.48
2022-10-28T16:26:49.809Z,9.51
2022-10-28T16:29:16.699Z,9.53
2022-10-28T16:31:52.407Z,9.32
2022-10-28T16:34:19.423Z,9.43
2022-10-28T16:36:46.336Z,9.41
2022-10-28T16:39:13.426Z,9.24
2022-10-28T16:41:41.034Z,9.29
2022-10-28T16:44:18.598Z,9.38
2022-10-28T16:46:45.537Z,9.43
2022-10-28T16:49:12.474Z,9.47
2022-10-28T16:51:40.073Z,9.37
2022-10-28T16:54:07.678Z,9.39
2022-10-28T16:56:34.707Z,9.44
2022-10-28T16:59:01.698Z,9.45
2022-10-28T17:01:28.673Z,9.46
2022-10-28T17:03:55.707Z,9.59
2022-10-28T17:06:22.744Z,9.56
2022-10-28T17:09:02.492Z,9.58
2022-10-28T17:13:58.164Z,9.61
2022-10-28T17:16:25.576Z,9.58
2022-10-28T17:18:52.438Z,9.54
2022-10-28T17:21:19.297Z,9.49
2022-10-28T17:23:46.148Z,9.60
2022-10-28T17:26:13.136Z,9.54
2022-10-28T17:28:40.116Z,9.64
2022-10-28T17:31:08.725Z,9.69
2022-10-28T17:33:35.616Z,9.71
2022-10-28T17:36:05.309Z,9.67
2022-10-28T17:38:32.438Z,9.70
2022-10-28T17:40:59.442Z,9.46
2022-10-28T17:43:26.377Z,9.62
2022-10-28T17:46:02.431Z,9.63
2022-10-28T17:48:29.851Z,9.58
2022-10-28T17:50:57.521Z,9.69
2022-10-28T17:53:24.512Z,9.66
2022-10-28T17:56:01.328Z,9.63
2022-10-28T17:58:28.607Z,9.62
2022-10-28T18:00:59.967Z,9.61
2022-10-28T18:03:28.346Z,9.70
2022-10-28T18:05:56.158Z,9.64
2022-10-28T18:08:23.726Z,9.52
2022-10-28T18:11:00.274Z,9.67
2022-10-28T18:13:28.127Z,9.49
2022-10-28T18:15:55.080Z,9.50
2022-10-28T18:18:22.117Z,9.47
2022-10-28T18:20:55.609Z,9.53
2022-10-28T18:23:23.404Z,9.58
2022-10-28T18:26:00.735Z,9.52
2022-10-28T18:28:29.574Z,9.35
2022-10-28T18:31:05.652Z,9.43
2022-10-28T18:33:33.572Z,9.55
2022-10-28T18:36:06.449Z,9.60
2022-10-28T18:38:34.154Z,9.40
2022-10-28T18:41:01.170Z,9.46
2022-10-28T18:43:28.514Z,9.54
2022-10-28T18:46:01.374Z,9.58
2022-10-28T18:48:29.737Z,9.60
2022-10-28T18:51:01.889Z,9.60
2022-10-28T18:53:28.790Z,9.57
2022-10-28T18:56:02.004Z,9.64
2022-10-28T18:58:29.000Z,9.59
2022-10-28T19:01:12.723Z,9.59
2022-10-28T19:03:40.996Z,9.59
2022-10-28T19:06:13.803Z,9.56
2022-10-28T19:08:41.201Z,9.57
2022-10-28T19:11:13.099Z,9.54
2022-10-28T19:13:41.906Z,9.58
2022-10-28T19:16:09.495Z,9.57
2022-10-28T19:18:38.367Z,9.63
2022-10-28T19:21:10.715Z,9.66
2022-10-28T19:23:38.184Z,9.72
2022-10-28T19:26:05.781Z,9.76
2022-10-28T19:28:43.247Z,9.70
2022-10-28T19:31:13.188Z,9.59
2022-10-28T19:33:40.871Z,9.64
2022-10-28T19:36:22.016Z,9.69
2022-10-28T19:38:50.683Z,9.80
2022-10-28T19:41:19.499Z,9.74
2022-10-28T19:43:47.635Z,9.73
2022-10-28T19:46:17.590Z,9.78
2022-10-28T19:48:52.512Z,9.81
2022-10-28T19:51:22.621Z,9.82
2022-10-28T19:53:57.976Z,9.85
2022-10-28T19:56:25.933Z,9.89
2022-10-28T19:58:55.380Z,9.85
2022-10-28T20:01:23.947Z,9.86
2022-10-28T20:03:52.325Z,9.89
2022-10-28T20:06:21.707Z,9.82
2022-10-28T20:08:49.624Z,9.83
2022-10-28T20:11:26.478Z,9.85
2022-10-28T20:13:56.358Z,9.81
2022-10-28T20:16:24.717Z,9.77
2022-10-28T20:18:53.696Z,9.76
2022-10-28T20:21:22.019Z,9.84
2022-10-28T20:23:54.459Z,9.87
2022-10-28T20:26:26.909Z,9.84
2022-10-28T20:28:53.843Z,9.84
2022-10-28T20:31:23.655Z,9.86
2022-10-28T20:33:52.852Z,9.81
2022-10-28T20:36:25.322Z,9.84
2022-10-28T20:39:02.473Z,9.76
2022-10-28T20:41:32.182Z,9.76
2022-10-28T20:43:59.693Z,9.91
2022-10-28T20:46:27.136Z,9.91
2022-10-28T20:48:54.505Z,9.95
2022-10-28T20:51:22.875Z,9.88
2022-10-28T20:53:50.032Z,9.93
2022-10-28T20:56:21.982Z,9.85
2022-10-28T20:58:49.013Z,9.93
2022-10-28T21:01:33.257Z,10.03
2022-10-28T21:04:03.103Z,10.03
2022-10-28T21:06:31.019Z,10.06
2022-10-28T21:08:59.138Z,10.08
2022-10-28T21:11:27.558Z,9.99
2022-10-28T21:13:59.637Z,10.05
2022-10-28T21:16:27.977Z,10.05
2022-10-28T21:18:55.768Z,10.08
2022-10-28T21:21:24.390Z,10.15
2022-10-28T21:23:51.552Z,10.17
2022-10-28T21:26:18.520Z,10.23
2022-10-28T21:28:49.483Z,10.28
2022-10-28T21:31:19.148Z,10.32
2022-10-28T21:33:47.426Z,10.21
2022-10-28T21:36:16.839Z,10.30
2022-10-28T21:38:44.412Z,10.23
2022-10-28T21:41:19.333Z,10.29
2022-10-28T21:43:48.573Z,10.29
2022-10-28T21:46:19.677Z,10.38
2022-10-28T21:48:47.235Z,10.34
2022-10-28T21:51:15.750Z,10.38
2022-10-28T21:53:44.892Z,10.42
2022-10-28T21:56:17.702Z,10.43
2022-10-28T21:58:46.644Z,10.31
2022-10-28T22:01:15.365Z,10.30
2022-10-28T22:03:46.857Z,10.31
2022-10-28T22:06:15.478Z,10.30
2022-10-28T22:08:43.857Z,10.28
2022-10-28T22:11:18.409Z,10.20
2022-10-28T22:13:49.844Z,10.29
2022-10-28T22:16:20.461Z,10.36
2022-10-28T22:18:47.853Z,10.42
2022-10-28T22:21:22.021Z,10.34
2022-10-28T22:23:52.461Z,10.38
2022-10-28T22:26:22.323Z,10.31
2022-10-28T22:28:49.739Z,10.38
2022-10-28T22:31:22.352Z,10.40
2022-10-28T22:33:50.595Z,10.21
2022-10-28T22:36:20.343Z,10.35
2022-10-28T22:38:48.168Z,10.39
2022-10-28T22:41:19.283Z,10.46
2022-10-28T22:43:49.377Z,10.47
2022-10-28T22:46:17.185Z,10.33
2022-10-28T22:48:45.760Z,10.45
2022-10-28T22:51:13.604Z,10.50
2022-10-28T22:53:41.514Z,10.52
2022-10-28T22:56:13.226Z,10.46
2022-10-28T22:58:40.240Z,10.36
2022-10-28T23:01:18.232Z,10.44
2022-10-28T23:03:47.233Z,10.47
2022-10-28T23:06:16.576Z,10.26
2022-10-28T23:08:45.019Z,10.40
2022-10-28T23:11:13.192Z,10.46
2022-10-28T23:13:40.348Z,10.41
2022-10-28T23:16:09.927Z,10.45
2022-10-28T23:18:37.603Z,10.42
2022-10-28T23:21:12.192Z,10.51
2022-10-28T23:23:40.229Z,10.46
2022-10-28T23:26:07.630Z,10.54
2022-10-28T23:28:34.600Z,10.55
2022-10-28T23:31:04.183Z,10.54
2022-10-28T23:33:32.332Z,10.40
2022-10-28T23:36:00.957Z,10.49
2022-10-28T23:38:28.379Z,10.56
2022-10-28T23:40:59.943Z,10.60
2022-10-28T23:43:28.393Z,10.65
2022-10-28T23:45:56.364Z,10.52
2022-10-28T23:48:24.183Z,10.63
2022-10-28T23:50:51.609Z,10.58
2022-10-28T23:53:19.233Z,10.50
2022-10-28T23:55:48.050Z,10.49
2022-10-28T23:58:16.489Z,10.62
